sensor_id;sensor_type;location;lat;lon;timestamp;temperature;humidity
17381;DHT22;8808;52.478;13.378;2023-03-01T00:02:11;-0.50;99.90
17381;DHT22;8808;52.478;13.378;2023-03-01T00:04:38;-0.50;99.90
17381;DHT22;8808;52.478;13.378;2023-03-01T00:07:05;-0.50;99.90
17381;DHT22;8808;52.478;13.378;2023-03-01T00:09:32;-0.50;99.90
17381;DHT22;8808;52.478;13.378;2023-03-01T00:12:00;-0.50;99.90
17381;DHT22;8808;52.478;13.378;2023-03-01T00:14:27;-0.60;99.90
17381;DHT22;8808;52.478;13.378;2023-03-01T00:16:54;-0.50;99.90
17381;DHT22;8808;52.478;13.378;2023-03-01T00:19:21;-0.60;99.90
17381;DHT22;8808;52.478;13.378;2023-03-01T00:21:48;-0.60;99.90
17381;DHT22;8808;52.478;13.378;2023-03-01T00:24:16;-0.60;99.90
17381;DHT22;8808;52.478;13.378;2023-03-01T00:26:43;-0.60;99.90
17381;DHT22;8808;52.478;13.378;2023-03-01T00:29:11;-0.60;99.90
17381;DHT22;8808;52.478;13.378;2023-03-01T00:31:38;-0.60;99.90
17381;DHT22;8808;52.478;13.378;2023-03-01T00:34:05;-0.50;99.90
17381;DHT22;8808;52.478;13.378;2023-03-01T00:36:35;-0.60;99.90
17381;DHT22;8808;52.478;13.378;2023-03-01T00:39:04;-0.70;99.90
17381;DHT22;8808;52.478;13.378;2023-03-01T00:41:31;-0.70;99.90
17381;DHT22;8808;52.478;13.378;2023-03-01T00:44:00;-0.80;99.90
17381;DHT22;8808;52.478;13.378;2023-03-01T00:46:28;-0.70;99.90
17381;DHT22;8808;52.478;13.378;2023-03-01T00:48:56;-0.80;99.90
17381;DHT22;8808;52.478;13.378;2023-03-01T00:51:25;-0.80;99.90
17381;DHT22;8808;52.478;13.378;2023-03-01T00:53:54;-0.70;99.90
17381;DHT22;8808;52.478;13.378;2023-03-01T00:56:22;-0.90;99.90
17381;DHT22;8808;52.478;13.378;2023-03-01T00:58:49;-0.90;99.90
17381;DHT22;8808;52.478;13.378;2023-03-01T01:01:18;-0.90;99.90
17381;DHT22;8808;52.478;13.378;2023-03-01T01:03:48;-0.90;99.90
17381;DHT22;8808;52.478;13.378;2023-03-01T01:06:17;-0.80;99.90
17381;DHT22;8808;52.478;13.378;2023-03-01T01:08:45;-0.90;99.90
17381;DHT22;8808;52.478;13.378;2023-03-01T01:11:12;-0.90;99.90
17381;DHT22;8808;52.478;13.378;2023-03-01T01:13:39;-1.00;99.90
17381;DHT22;8808;52.478;13.378;2023-03-01T01:16:07;-0.90;99.90
17381;DHT22;8808;52.478;13.378;2023-03-01T01:18:34;-0.90;99.90
17381;DHT22;8808;52.478;13.378;2023-03-01T01:21:08;-1.00;99.90
17381;DHT22;8808;52.478;13.378;2023-03-01T01:23:36;-0.80;99.90
17381;DHT22;8808;52.478;13.378;2023-03-01T01:26:04;-0.90;99.90
17381;DHT22;8808;52.478;13.378;2023-03-01T01:28:32;-0.90;99.90
17381;DHT22;8808;52.478;13.378;2023-03-01T01:30:58;-0.90;99.90
17381;DHT22;8808;52.478;13.378;2023-03-01T01:33:25;-1.00;99.90
17381;DHT22;8808;52.478;13.378;2023-03-01T01:35:52;-1.00;99.90
17381;DHT22;8808;52.478;13.378;2023-03-01T01:38:21;-1.00;99.90
17381;DHT22;8808;52.478;13.378;2023-03-01T01:40:50;-1.00;99.90
17381;DHT22;8808;52.478;13.378;2023-03-01T01:43:22;-1.00;99.90
17381;DHT22;8808;52.478;13.378;2023-03-01T01:45:49;-1.00;99.90
17381;DHT22;8808;52.478;13.378;2023-03-01T01:48:20;-0.90;99.90
17381;DHT22;8808;52.478;13.378;2023-03-01T01:50:54;-0.90;99.90
17381;DHT22;8808;52.478;13.378;2023-03-01T01:53:24;-1.10;99.90
17381;DHT22;8808;52.478;13.378;2023-03-01T01:55:54;-1.20;99.90
17381;DHT22;8808;52.478;13.378;2023-03-01T01:58:24;-1.20;99.90
17381;DHT22;8808;52.478;13.378;2023-03-01T02:03:30;-1.20;99.90
17381;DHT22;8808;52.478;13.378;2023-03-01T02:06:06;-1.10;99.90
17381;DHT22;8808;52.478;13.378;2023-03-01T02:08:38;-1.20;99.90
17381;DHT22;8808;52.478;13.378;2023-03-01T02:11:05;-1.20;99.90
17381;DHT22;8808;52.478;13.378;2023-03-01T02:13:33;-1.30;99.90
17381;DHT22;8808;52.478;13.378;2023-03-01T02:16:03;-1.20;99.90
17381;DHT22;8808;52.478;13.378;2023-03-01T02:18:30;-1.20;99.90
17381;DHT22;8808;52.478;13.378;2023-03-01T02:21:19;-1.30;99.90
17381;DHT22;8808;52.478;13.378;2023-03-01T02:23:48;-1.30;99.90
17381;DHT22;8808;52.478;13.378;2023-03-01T02:26:20;-1.30;99.90
17381;DHT22;8808;52.478;13.378;2023-03-01T02:28:50;-1.30;99.90
17381;DHT22;8808;52.478;13.378;2023-03-01T02:31:19;-1.40;99.90
17381;DHT22;8808;52.478;13.378;2023-03-01T02:34:05;-1.40;99.90
17381;DHT22;8808;52.478;13.378;2023-03-01T02:36:36;-1.30;99.90
17381;DHT22;8808;52.478;13.378;2023-03-01T02:39:05;-1.30;99.90
17381;DHT22;8808;52.478;13.378;2023-03-01T02:41:36;-1.40;99.90
17381;DHT22;8808;52.478;13.378;2023-03-01T02:44:05;-1.40;99.90
17381;DHT22;8808;52.478;13.378;2023-03-01T02:46:31;-1.40;99.90
17381;DHT22;8808;52.478;13.378;2023-03-01T02:48:59;-1.40;99.90
17381;DHT22;8808;52.478;13.378;2023-03-01T02:51:38;-1.40;99.90
17381;DHT22;8808;52.478;13.378;2023-03-01T02:54:16;-1.30;99.90
17381;DHT22;8808;52.478;13.378;2023-03-01T02:56:45;-1.30;99.90
17381;DHT22;8808;52.478;13.378;2023-03-01T02:59:16;-1.20;99.90
17381;DHT22;8808;52.478;13.378;2023-03-01T03:01:44;-1.30;99.90
17381;DHT22;8808;52.478;13.378;2023-03-01T03:04:14;-1.50;99.90
17381;DHT22;8808;52.478;13.378;2023-03-01T03:06:43;-1.40;99.90
17381;DHT22;8808;52.478;13.378;2023-03-01T03:09:11;-1.50;99.90
17381;DHT22;8808;52.478;13.378;2023-03-01T03:11:39;-1.50;99.90
17381;DHT22;8808;52.478;13.378;2023-03-01T03:14:07;-1.60;99.90
17381;DHT22;8808;52.478;13.378;2023-03-01T03:16:40;-1.70;99.90
17381;DHT22;8808;52.478;13.378;2023-03-01T03:19:07;-1.70;99.90
17381;DHT22;8808;52.478;13.378;2023-03-01T03:21:34;-1.70;99.90
17381;DHT22;8808;52.478;13.378;2023-03-01T03:24:01;-1.70;99.90
17381;DHT22;8808;52.478;13.378;2023-03-01T03:26:29;-1.70;99.90
17381;DHT22;8808;52.478;13.378;2023-03-01T03:28:56;-1.70;99.90
17381;DHT22;8808;52.478;13.378;2023-03-01T03:31:24;-1.70;99.90
17381;DHT22;8808;52.478;13.378;2023-03-01T03:33:52;-1.70;99.90
17381;DHT22;8808;52.478;13.378;2023-03-01T03:36:21;-1.60;99.90
17381;DHT22;8808;52.478;13.378;2023-03-01T03:38:49;-1.60;99.90
17381;DHT22;8808;52.478;13.378;2023-03-01T03:41:17;-1.60;99.90
17381;DHT22;8808;52.478;13.378;2023-03-01T03:43:44;-1.70;99.90
17381;DHT22;8808;52.478;13.378;2023-03-01T03:46:12;-1.70;99.90
17381;DHT22;8808;52.478;13.378;2023-03-01T03:48:40;-1.70;99.90
17381;DHT22;8808;52.478;13.378;2023-03-01T03:51:12;-1.50;99.90
17381;DHT22;8808;52.478;13.378;2023-03-01T03:53:40;-1.70;99.90
17381;DHT22;8808;52.478;13.378;2023-03-01T03:56:07;-1.70;99.90
17381;DHT22;8808;52.478;13.378;2023-03-01T03:58:34;-1.80;99.90
17381;DHT22;8808;52.478;13.378;2023-03-01T04:01:02;-1.80;99.90
17381;DHT22;8808;52.478;13.378;2023-03-01T04:03:30;-1.80;99.90
17381;DHT22;8808;52.478;13.378;2023-03-01T04:05:58;-1.80;99.90
17381;DHT22;8808;52.478;13.378;2023-03-01T04:08:27;-1.80;99.90
17381;DHT22;8808;52.478;13.378;2023-03-01T04:10:58;-1.90;99.90
17381;DHT22;8808;52.478;13.378;2023-03-01T04:13:26;-1.80;99.90
17381;DHT22;8808;52.478;13.378;2023-03-01T04:15:54;-1.80;99.90
17381;DHT22;8808;52.478;13.378;2023-03-01T04:18:22;-1.80;99.90
17381;DHT22;8808;52.478;13.378;2023-03-01T04:20:50;-1.90;99.90
17381;DHT22;8808;52.478;13.378;2023-03-01T04:23:21;-1.90;99.90
17381;DHT22;8808;52.478;13.378;2023-03-01T04:25:51;-1.90;99.90
17381;DHT22;8808;52.478;13.378;2023-03-01T04:28:20;-1.80;99.90
17381;DHT22;8808;52.478;13.378;2023-03-01T04:30:47;-1.90;99.90
17381;DHT22;8808;52.478;13.378;2023-03-01T04:33:15;-1.90;99.90
17381;DHT22;8808;52.478;13.378;2023-03-01T04:35:41;-1.90;99.90
17381;DHT22;8808;52.478;13.378;2023-03-01T04:38:09;-2.00;99.90
17381;DHT22;8808;52.478;13.378;2023-03-01T04:40:36;-1.90;99.90
17381;DHT22;8808;52.478;13.378;2023-03-01T04:43:04;-1.90;99.90
17381;DHT22;8808;52.478;13.378;2023-03-01T04:45:32;-1.90;99.90
17381;DHT22;8808;52.478;13.378;2023-03-01T04:48:01;-2.00;99.90
17381;DHT22;8808;52.478;13.378;2023-03-01T04:52:55;-2.00;99.90
17381;DHT22;8808;52.478;13.378;2023-03-01T04:55:24;-2.00;99.90
17381;DHT22;8808;52.478;13.378;2023-03-01T04:57:51;-2.00;99.90
17381;DHT22;8808;52.478;13.378;2023-03-01T05:00:21;-1.90;99.90
17381;DHT22;8808;52.478;13.378;2023-03-01T05:02:49;-2.00;99.90
17381;DHT22;8808;52.478;13.378;2023-03-01T05:05:20;-1.90;99.90
17381;DHT22;8808;52.478;13.378;2023-03-01T05:07:54;-2.00;99.90
17381;DHT22;8808;52.478;13.378;2023-03-01T05:10:21;-2.10;99.90
17381;DHT22;8808;52.478;13.378;2023-03-01T05:12:49;-2.00;99.90
17381;DHT22;8808;52.478;13.378;2023-03-01T05:15:17;-2.10;99.90
17381;DHT22;8808;52.478;13.378;2023-03-01T05:17:48;-2.10;99.90
17381;DHT22;8808;52.478;13.378;2023-03-01T05:20:15;-2.10;99.90
17381;DHT22;8808;52.478;13.378;2023-03-01T05:22:42;-2.00;99.90
17381;DHT22;8808;52.478;13.378;2023-03-01T05:25:09;-2.00;99.90
17381;DHT22;8808;52.478;13.378;2023-03-01T05:27:39;-2.10;99.90
17381;DHT22;8808;52.478;13.378;2023-03-01T05:30:07;-2.00;99.90
17381;DHT22;8808;52.478;13.378;2023-03-01T05:32:44;-2.10;99.90
17381;DHT22;8808;52.478;13.378;2023-03-01T05:35:14;-2.10;99.90
17381;DHT22;8808;52.478;13.378;2023-03-01T05:37:41;-2.10;99.90
17381;DHT22;8808;52.478;13.378;2023-03-01T05:40:10;-2.00;99.90
17381;DHT22;8808;52.478;13.378;2023-03-01T05:42:44;-2.10;99.90
17381;DHT22;8808;52.478;13.378;2023-03-01T05:45:12;-2.20;99.90
17381;DHT22;8808;52.478;13.378;2023-03-01T05:47:40;-2.20;99.90
17381;DHT22;8808;52.478;13.378;2023-03-01T05:50:13;-2.20;99.90
17381;DHT22;8808;52.478;13.378;2023-03-01T05:52:43;-2.10;99.90
17381;DHT22;8808;52.478;13.378;2023-03-01T05:55:11;-2.10;99.90
17381;DHT22;8808;52.478;13.378;2023-03-01T05:57:38;-2.10;99.90
17381;DHT22;8808;52.478;13.378;2023-03-01T06:00:06;-2.00;99.90
17381;DHT22;8808;52.478;13.378;2023-03-01T06:02:33;-2.00;99.90
17381;DHT22;8808;52.478;13.378;2023-03-01T06:05:00;-2.00;99.90
17381;DHT22;8808;52.478;13.378;2023-03-01T06:07:29;-2.10;99.90
17381;DHT22;8808;52.478;13.378;2023-03-01T06:09:56;-2.00;99.90
17381;DHT22;8808;52.478;13.378;2023-03-01T06:12:23;-2.10;99.90
17381;DHT22;8808;52.478;13.378;2023-03-01T06:14:50;-2.00;99.90
17381;DHT22;8808;52.478;13.378;2023-03-01T06:17:17;-2.00;99.90
17381;DHT22;8808;52.478;13.378;2023-03-01T06:19:44;-2.00;99.90
17381;DHT22;8808;52.478;13.378;2023-03-01T06:22:11;-2.00;99.90
17381;DHT22;8808;52.478;13.378;2023-03-01T06:24:39;-1.80;99.90
17381;DHT22;8808;52.478;13.378;2023-03-01T06:27:06;-1.70;99.90
17381;DHT22;8808;52.478;13.378;2023-03-01T06:29:33;-1.80;99.90
17381;DHT22;8808;52.478;13.378;2023-03-01T06:32:00;-1.80;99.90
17381;DHT22;8808;52.478;13.378;2023-03-01T06:34:28;-1.70;99.90
17381;DHT22;8808;52.478;13.378;2023-03-01T06:36:55;-1.60;99.90
17381;DHT22;8808;52.478;13.378;2023-03-01T06:39:22;-1.50;99.90
17381;DHT22;8808;52.478;13.378;2023-03-01T06:41:51;-1.40;99.90
17381;DHT22;8808;52.478;13.378;2023-03-01T06:44:17;-1.30;99.90
17381;DHT22;8808;52.478;13.378;2023-03-01T06:46:44;-1.10;99.90
17381;DHT22;8808;52.478;13.378;2023-03-01T06:49:12;-0.90;99.90
17381;DHT22;8808;52.478;13.378;2023-03-01T06:51:39;-0.90;99.90
17381;DHT22;8808;52.478;13.378;2023-03-01T06:54:06;-1.30;99.90
17381;DHT22;8808;52.478;13.378;2023-03-01T06:56:33;-0.90;99.90
17381;DHT22;8808;52.478;13.378;2023-03-01T06:59:02;-0.70;99.90
17381;DHT22;8808;52.478;13.378;2023-03-01T07:01:29;-0.60;99.90
17381;DHT22;8808;52.478;13.378;2023-03-01T07:03:57;-0.40;99.90
17381;DHT22;8808;52.478;13.378;2023-03-01T07:06:24;-0.50;99.90
17381;DHT22;8808;52.478;13.378;2023-03-01T07:08:50;-0.30;99.90
17381;DHT22;8808;52.478;13.378;2023-03-01T07:11:17;0.00;99.90
17381;DHT22;8808;52.478;13.378;2023-03-01T07:13:44;0.00;99.90
17381;DHT22;8808;52.478;13.378;2023-03-01T07:16:13;0.00;99.90
17381;DHT22;8808;52.478;13.378;2023-03-01T07:18:41;0.10;99.90
17381;DHT22;8808;52.478;13.378;2023-03-01T07:21:09;0.20;99.90
17381;DHT22;8808;52.478;13.378;2023-03-01T07:23:36;0.30;99.90
17381;DHT22;8808;52.478;13.378;2023-03-01T07:26:03;0.50;99.90
17381;DHT22;8808;52.478;13.378;2023-03-01T07:28:30;0.50;99.90
17381;DHT22;8808;52.478;13.378;2023-03-01T07:31:01;0.50;99.90
17381;DHT22;8808;52.478;13.378;2023-03-01T07:33:30;0.60;99.90
17381;DHT22;8808;52.478;13.378;2023-03-01T07:35:57;0.90;99.90
17381;DHT22;8808;52.478;13.378;2023-03-01T07:38:25;1.00;99.90
17381;DHT22;8808;52.478;13.378;2023-03-01T07:40:52;1.10;99.90
17381;DHT22;8808;52.478;13.378;2023-03-01T07:43:19;1.30;99.90
17381;DHT22;8808;52.478;13.378;2023-03-01T07:45:46;1.50;99.90
17381;DHT22;8808;52.478;13.378;2023-03-01T07:48:13;1.60;99.90
17381;DHT22;8808;52.478;13.378;2023-03-01T07:50:41;1.80;99.90
17381;DHT22;8808;52.478;13.378;2023-03-01T07:53:09;1.90;99.90
17381;DHT22;8808;52.478;13.378;2023-03-01T07:55:37;2.10;99.90
17381;DHT22;8808;52.478;13.378;2023-03-01T07:58:04;2.30;99.90
17381;DHT22;8808;52.478;13.378;2023-03-01T08:00:31;2.50;99.90
17381;DHT22;8808;52.478;13.378;2023-03-01T08:02:59;2.70;99.90
17381;DHT22;8808;52.478;13.378;2023-03-01T08:05:26;2.80;99.90
17381;DHT22;8808;52.478;13.378;2023-03-01T08:07:54;3.00;99.90
17381;DHT22;8808;52.478;13.378;2023-03-01T08:10:21;3.40;99.90
17381;DHT22;8808;52.478;13.378;2023-03-01T08:12:51;3.50;99.90
17381;DHT22;8808;52.478;13.378;2023-03-01T08:15:17;3.70;99.90
17381;DHT22;8808;52.478;13.378;2023-03-01T08:17:45;3.70;99.90
17381;DHT22;8808;52.478;13.378;2023-03-01T08:20:12;4.00;99.90
17381;DHT22;8808;52.478;13.378;2023-03-01T08:22:39;4.20;99.90
17381;DHT22;8808;52.478;13.378;2023-03-01T08:25:08;4.50;99.90
17381;DHT22;8808;52.478;13.378;2023-03-01T08:27:35;4.30;99.90
17381;DHT22;8808;52.478;13.378;2023-03-01T08:30:02;4.50;99.90
17381;DHT22;8808;52.478;13.378;2023-03-01T08:32:32;4.60;99.90
17381;DHT22;8808;52.478;13.378;2023-03-01T08:35:01;4.90;99.90
17381;DHT22;8808;52.478;13.378;2023-03-01T08:37:28;4.70;99.90
17381;DHT22;8808;52.478;13.378;2023-03-01T08:39:56;4.60;99.90
17381;DHT22;8808;52.478;13.378;2023-03-01T08:42:24;5.10;99.90
17381;DHT22;8808;52.478;13.378;2023-03-01T08:44:51;5.10;99.90
17381;DHT22;8808;52.478;13.378;2023-03-01T08:47:18;5.20;99.90
17381;DHT22;8808;52.478;13.378;2023-03-01T08:49:45;5.20;99.90
17381;DHT22;8808;52.478;13.378;2023-03-01T08:52:12;5.60;99.90
17381;DHT22;8808;52.478;13.378;2023-03-01T08:54:39;5.60;99.90
17381;DHT22;8808;52.478;13.378;2023-03-01T08:57:06;5.50;99.00
17381;DHT22;8808;52.478;13.378;2023-03-01T08:59:35;5.20;98.60
17381;DHT22;8808;52.478;13.378;2023-03-01T09:02:03;5.60;99.90
17381;DHT22;8808;52.478;13.378;2023-03-01T09:04:30;5.70;98.50
17381;DHT22;8808;52.478;13.378;2023-03-01T09:06:57;5.40;97.90
17381;DHT22;8808;52.478;13.378;2023-03-01T09:09:24;5.40;97.30
17381;DHT22;8808;52.478;13.378;2023-03-01T09:11:51;5.40;97.00
17381;DHT22;8808;52.478;13.378;2023-03-01T09:14:17;5.90;97.90
17381;DHT22;8808;52.478;13.378;2023-03-01T09:16:46;5.90;97.60
17381;DHT22;8808;52.478;13.378;2023-03-01T09:19:13;5.50;96.10
17381;DHT22;8808;52.478;13.378;2023-03-01T09:21:40;5.50;96.50
17381;DHT22;8808;52.478;13.378;2023-03-01T09:24:19;5.70;96.50
17381;DHT22;8808;52.478;13.378;2023-03-01T09:26:47;5.60;95.60
17381;DHT22;8808;52.478;13.378;2023-03-01T09:29:14;5.60;96.00
17381;DHT22;8808;52.478;13.378;2023-03-01T09:31:41;5.80;95.40
17381;DHT22;8808;52.478;13.378;2023-03-01T09:34:10;5.70;95.50
17381;DHT22;8808;52.478;13.378;2023-03-01T09:36:38;5.50;94.20
17381;DHT22;8808;52.478;13.378;2023-03-01T09:39:05;5.40;95.00
17381;DHT22;8808;52.478;13.378;2023-03-01T09:41:45;5.80;94.50
17381;DHT22;8808;52.478;13.378;2023-03-01T09:44:21;5.80;95.20
17381;DHT22;8808;52.478;13.378;2023-03-01T09:46:50;5.70;94.80
17381;DHT22;8808;52.478;13.378;2023-03-01T09:49:21;6.00;93.80
17381;DHT22;8808;52.478;13.378;2023-03-01T09:51:55;6.10;94.30
17381;DHT22;8808;52.478;13.378;2023-03-01T09:54:23;6.40;93.50
17381;DHT22;8808;52.478;13.378;2023-03-01T09:57:09;6.30;92.70
17381;DHT22;8808;52.478;13.378;2023-03-01T09:59:49;6.40;93.60
17381;DHT22;8808;52.478;13.378;2023-03-01T10:02:26;6.40;93.00
17381;DHT22;8808;52.478;13.378;2023-03-01T10:04:59;6.30;92.40
17381;DHT22;8808;52.478;13.378;2023-03-01T10:07:37;6.60;91.90
17381;DHT22;8808;52.478;13.378;2023-03-01T10:10:16;6.60;91.70
17381;DHT22;8808;52.478;13.378;2023-03-01T10:12:48;6.70;92.60
17381;DHT22;8808;52.478;13.378;2023-03-01T10:15:18;6.80;91.90
17381;DHT22;8808;52.478;13.378;2023-03-01T10:17:51;6.90;92.10
17381;DHT22;8808;52.478;13.378;2023-03-01T10:20:22;7.50;92.20
17381;DHT22;8808;52.478;13.378;2023-03-01T10:22:50;7.30;92.30
17381;DHT22;8808;52.478;13.378;2023-03-01T10:25:26;7.80;90.80
17381;DHT22;8808;52.478;13.378;2023-03-01T10:28:02;8.10;90.50
17381;DHT22;8808;52.478;13.378;2023-03-01T10:30:35;8.40;89.30
17381;DHT22;8808;52.478;13.378;2023-03-01T10:33:13;8.50;90.20
17381;DHT22;8808;52.478;13.378;2023-03-01T10:35:42;8.30;88.80
17381;DHT22;8808;52.478;13.378;2023-03-01T10:38:10;8.40;88.80
17381;DHT22;8808;52.478;13.378;2023-03-01T10:40:52;8.50;88.60
17381;DHT22;8808;52.478;13.378;2023-03-01T10:43:19;8.80;88.10
17381;DHT22;8808;52.478;13.378;2023-03-01T10:45:47;9.00;87.60
17381;DHT22;8808;52.478;13.378;2023-03-01T10:48:15;8.90;85.10
17381;DHT22;8808;52.478;13.378;2023-03-01T10:50:46;9.00;88.70
17381;DHT22;8808;52.478;13.378;2023-03-01T10:53:25;8.80;85.60
17381;DHT22;8808;52.478;13.378;2023-03-01T10:55:59;8.60;85.30
17381;DHT22;8808;52.478;13.378;2023-03-01T10:58:27;8.60;85.60
17381;DHT22;8808;52.478;13.378;2023-03-01T11:00:56;8.30;86.00
17381;DHT22;8808;52.478;13.378;2023-03-01T11:03:24;8.20;87.40
17381;DHT22;8808;52.478;13.378;2023-03-01T11:06:00;8.30;86.50
17381;DHT22;8808;52.478;13.378;2023-03-01T11:08:38;8.00;86.90
17381;DHT22;8808;52.478;13.378;2023-03-01T11:11:18;8.20;87.50
17381;DHT22;8808;52.478;13.378;2023-03-01T11:13:51;8.60;87.80
17381;DHT22;8808;52.478;13.378;2023-03-01T11:16:33;8.80;83.30
17381;DHT22;8808;52.478;13.378;2023-03-01T11:19:19;8.60;84.40
17381;DHT22;8808;52.478;13.378;2023-03-01T11:22:03;8.80;83.90
17381;DHT22;8808;52.478;13.378;2023-03-01T11:24:36;9.30;83.20
17381;DHT22;8808;52.478;13.378;2023-03-01T11:27:12;8.90;80.60
17381;DHT22;8808;52.478;13.378;2023-03-01T11:29:43;8.70;80.10
17381;DHT22;8808;52.478;13.378;2023-03-01T11:32:13;8.90;79.80
17381;DHT22;8808;52.478;13.378;2023-03-01T11:34:45;9.50;79.70
17381;DHT22;8808;52.478;13.378;2023-03-01T11:37:23;8.70;79.10
17381;DHT22;8808;52.478;13.378;2023-03-01T11:39:59;9.40;78.70
17381;DHT22;8808;52.478;13.378;2023-03-01T11:42:47;9.70;77.40
17381;DHT22;8808;52.478;13.378;2023-03-01T11:45:15;9.50;78.80
17381;DHT22;8808;52.478;13.378;2023-03-01T11:47:54;9.30;76.50
17381;DHT22;8808;52.478;13.378;2023-03-01T11:50:30;8.90;76.10
17381;DHT22;8808;52.478;13.378;2023-03-01T11:53:13;9.50;77.60
17381;DHT22;8808;52.478;13.378;2023-03-01T11:55:59;9.80;75.60
17381;DHT22;8808;52.478;13.378;2023-03-01T11:58:53;10.00;75.30
17381;DHT22;8808;52.478;13.378;2023-03-01T12:01:37;9.70;73.10
17381;DHT22;8808;52.478;13.378;2023-03-01T12:04:21;9.50;72.90
17381;DHT22;8808;52.478;13.378;2023-03-01T12:06:56;9.40;73.80
17381;DHT22;8808;52.478;13.378;2023-03-01T12:09:37;9.50;74.20
17381;DHT22;8808;52.478;13.378;2023-03-01T12:12:34;9.20;74.30
17381;DHT22;8808;52.478;13.378;2023-03-01T12:18:29;9.60;71.80
17381;DHT22;8808;52.478;13.378;2023-03-01T12:21:08;9.80;68.70
17381;DHT22;8808;52.478;13.378;2023-03-01T12:23:57;10.10;70.60
17381;DHT22;8808;52.478;13.378;2023-03-01T12:26:34;10.20;69.10
17381;DHT22;8808;52.478;13.378;2023-03-01T12:29:19;10.40;70.40
17381;DHT22;8808;52.478;13.378;2023-03-01T12:32:10;10.10;70.20
17381;DHT22;8808;52.478;13.378;2023-03-01T12:34:59;10.50;70.60
17381;DHT22;8808;52.478;13.378;2023-03-01T12:37:34;10.10;66.80
17381;DHT22;8808;52.478;13.378;2023-03-01T12:40:32;9.20;67.40
17381;DHT22;8808;52.478;13.378;2023-03-01T12:43:10;9.50;67.10
17381;DHT22;8808;52.478;13.378;2023-03-01T12:45:50;9.70;69.10
17381;DHT22;8808;52.478;13.378;2023-03-01T12:48:27;9.40;68.40
17381;DHT22;8808;52.478;13.378;2023-03-01T12:51:01;10.10;69.30
17381;DHT22;8808;52.478;13.378;2023-03-01T12:53:31;10.00;69.60
17381;DHT22;8808;52.478;13.378;2023-03-01T12:56:01;10.40;69.70
17381;DHT22;8808;52.478;13.378;2023-03-01T12:58:33;10.40;69.00
17381;DHT22;8808;52.478;13.378;2023-03-01T13:01:12;10.00;68.10
17381;DHT22;8808;52.478;13.378;2023-03-01T13:04:05;9.40;67.00
17381;DHT22;8808;52.478;13.378;2023-03-01T13:06:38;10.00;67.40
17381;DHT22;8808;52.478;13.378;2023-03-01T13:09:14;9.80;67.50
17381;DHT22;8808;52.478;13.378;2023-03-01T13:11:44;9.40;66.30
17381;DHT22;8808;52.478;13.378;2023-03-01T13:17:31;9.60;66.50
17381;DHT22;8808;52.478;13.378;2023-03-01T13:19:59;9.30;69.10
17381;DHT22;8808;52.478;13.378;2023-03-01T13:22:28;9.30;68.40
17381;DHT22;8808;52.478;13.378;2023-03-01T13:25:13;9.50;66.30
17381;DHT22;8808;52.478;13.378;2023-03-01T13:27:41;9.50;65.10
17381;DHT22;8808;52.478;13.378;2023-03-01T13:30:39;9.40;66.20
17381;DHT22;8808;52.478;13.378;2023-03-01T13:36:11;9.30;65.00
17381;DHT22;8808;52.478;13.378;2023-03-01T13:39:00;9.30;65.30
17381;DHT22;8808;52.478;13.378;2023-03-01T13:41:49;8.80;61.50
17381;DHT22;8808;52.478;13.378;2023-03-01T13:44:21;8.80;63.40
17381;DHT22;8808;52.478;13.378;2023-03-01T13:46:52;8.80;63.50
17381;DHT22;8808;52.478;13.378;2023-03-01T13:49:22;9.00;67.20
17381;DHT22;8808;52.478;13.378;2023-03-01T13:51:51;9.00;63.60
17381;DHT22;8808;52.478;13.378;2023-03-01T13:54:25;9.30;67.50
17381;DHT22;8808;52.478;13.378;2023-03-01T13:56:53;9.20;64.10
17381;DHT22;8808;52.478;13.378;2023-03-01T13:59:22;9.30;65.60
17381;DHT22;8808;52.478;13.378;2023-03-01T14:01:53;9.20;64.30
17381;DHT22;8808;52.478;13.378;2023-03-01T14:04:22;9.00;63.30
17381;DHT22;8808;52.478;13.378;2023-03-01T14:07:09;9.10;64.70
17381;DHT22;8808;52.478;13.378;2023-03-01T14:09:39;9.20;63.80
17381;DHT22;8808;52.478;13.378;2023-03-01T14:12:20;8.90;62.50
17381;DHT22;8808;52.478;13.378;2023-03-01T14:14:59;9.00;63.40
17381;DHT22;8808;52.478;13.378;2023-03-01T14:17:44;9.00;63.60
17381;DHT22;8808;52.478;13.378;2023-03-01T14:20:17;9.00;64.20
17381;DHT22;8808;52.478;13.378;2023-03-01T14:22:47;9.10;65.30
17381;DHT22;8808;52.478;13.378;2023-03-01T14:25:24;9.20;64.80
17381;DHT22;8808;52.478;13.378;2023-03-01T14:27:55;9.10;65.20
17381;DHT22;8808;52.478;13.378;2023-03-01T14:30:25;9.20;66.90
17381;DHT22;8808;52.478;13.378;2023-03-01T14:32:55;9.20;65.80
17381;DHT22;8808;52.478;13.378;2023-03-01T14:35:25;9.20;64.60
17381;DHT22;8808;52.478;13.378;2023-03-01T14:37:54;9.00;64.50
17381;DHT22;8808;52.478;13.378;2023-03-01T14:40:24;9.00;65.50
17381;DHT22;8808;52.478;13.378;2023-03-01T14:42:51;8.90;66.50
17381;DHT22;8808;52.478;13.378;2023-03-01T14:45:19;8.90;66.80
17381;DHT22;8808;52.478;13.378;2023-03-01T14:47:46;8.70;65.10
17381;DHT22;8808;52.478;13.378;2023-03-01T14:50:23;8.70;65.20
17381;DHT22;8808;52.478;13.378;2023-03-01T14:52:54;8.70;66.90
17381;DHT22;8808;52.478;13.378;2023-03-01T14:55:27;8.70;66.40
17381;DHT22;8808;52.478;13.378;2023-03-01T14:57:54;8.70;67.50
17381;DHT22;8808;52.478;13.378;2023-03-01T15:00:23;8.70;66.90
17381;DHT22;8808;52.478;13.378;2023-03-01T15:02:52;8.80;67.00
17381;DHT22;8808;52.478;13.378;2023-03-01T15:05:25;8.60;68.40
17381;DHT22;8808;52.478;13.378;2023-03-01T15:07:57;8.60;70.10
17381;DHT22;8808;52.478;13.378;2023-03-01T15:10:26;8.60;70.50
17381;DHT22;8808;52.478;13.378;2023-03-01T15:12:54;8.70;70.80
17381;DHT22;8808;52.478;13.378;2023-03-01T15:15:30;8.80;72.50
17381;DHT22;8808;52.478;13.378;2023-03-01T15:17:59;8.70;72.60
17381;DHT22;8808;52.478;13.378;2023-03-01T15:20:28;8.50;72.70
17381;DHT22;8808;52.478;13.378;2023-03-01T15:23:00;8.50;73.70
17381;DHT22;8808;52.478;13.378;2023-03-01T15:25:29;8.60;75.00
17381;DHT22;8808;52.478;13.378;2023-03-01T15:27:58;8.60;74.30
17381;DHT22;8808;52.478;13.378;2023-03-01T15:30:27;8.60;74.40
17381;DHT22;8808;52.478;13.378;2023-03-01T15:33:25;8.60;75.10
17381;DHT22;8808;52.478;13.378;2023-03-01T15:35:55;8.60;75.40
17381;DHT22;8808;52.478;13.378;2023-03-01T15:38:33;8.60;75.40
17381;DHT22;8808;52.478;13.378;2023-03-01T15:41:02;8.50;74.80
17381;DHT22;8808;52.478;13.378;2023-03-01T15:43:41;8.50;75.70
17381;DHT22;8808;52.478;13.378;2023-03-01T15:46:20;8.40;74.90
17381;DHT22;8808;52.478;13.378;2023-03-01T15:48:50;8.50;76.10
17381;DHT22;8808;52.478;13.378;2023-03-01T15:51:22;8.50;75.50
17381;DHT22;8808;52.478;13.378;2023-03-01T15:53:52;8.40;75.80
17381;DHT22;8808;52.478;13.378;2023-03-01T15:56:19;8.40;76.40
17381;DHT22;8808;52.478;13.378;2023-03-01T15:58:46;8.20;76.40
17381;DHT22;8808;52.478;13.378;2023-03-01T16:01:15;8.30;76.60
17381;DHT22;8808;52.478;13.378;2023-03-01T16:03:43;8.20;77.20
17381;DHT22;8808;52.478;13.378;2023-03-01T16:06:11;8.30;76.00
17381;DHT22;8808;52.478;13.378;2023-03-01T16:08:39;8.10;77.40
17381;DHT22;8808;52.478;13.378;2023-03-01T16:11:14;8.10;76.80
17381;DHT22;8808;52.478;13.378;2023-03-01T16:13:42;8.10;76.50
17381;DHT22;8808;52.478;13.378;2023-03-01T16:16:11;8.10;77.50
17381;DHT22;8808;52.478;13.378;2023-03-01T16:18:41;8.10;77.10